Time;durP1;ratioP1;P1;durP2;ratioP2;P2;SDS_P1;SDS_P2;PMS_P1;PMS_P2;Temp;Humidity;BMP_temperature;BMP_pressure;BME280_temperature;BME280_humidity;BME280_pressure;Samples;Min_cycle;Max_cycle;Signal;HPM_P1;HPM_P2
2023/01/16 00:01:22;;;;;;;11.60;6.57;;;;;;;4.27;100.00;99587.22;4994552;28;20043;-61
2023/01/16 00:03:47;;;;;;;9.25;6.25;;;;;;;4.21;100.00;99574.34;5030373;28;20029;-61
2023/01/16 00:06:13;;;;;;;9.70;5.93;;;;;;;4.20;100.00;99572.66;5029182;28;20025;-61
2023/01/16 00:08:38;;;;;;;8.02;5.05;;;;;;;4.19;100.00;99555.31;5030093;28;20469;-62
2023/01/16 00:11:04;;;;;;;8.73;5.47;;;;;;;4.15;100.00;99554.53;5029255;28;20072;-62
2023/01/16 00:13:29;;;;;;;8.70;5.40;;;;;;;4.11;100.00;99554.66;5029640;28;20025;-62
2023/01/16 00:15:54;;;;;;;9.27;5.70;;;;;;;4.07;100.00;99551.28;5028678;28;20038;-62
2023/01/16 00:18:20;;;;;;;8.90;5.65;;;;;;;4.11;100.00;99550.31;5037655;28;20468;-62
2023/01/16 00:20:46;;;;;;;10.45;5.32;;;;;;;4.11;100.00;99534.66;5063481;28;20036;-63
2023/01/16 00:23:11;;;;;;;10.00;5.32;;;;;;;4.03;100.00;99532.25;5049554;28;20025;-63
2023/01/16 00:25:41;;;;;;;7.72;4.95;;;;;;;4.00;100.00;99523.69;5048254;28;20032;-60
2023/01/16 00:28:10;;;;;;;5.10;4.32;;;;;;;3.99;100.00;99530.66;5049381;28;20017;-63
2023/01/16 00:30:36;;;;;;;8.70;4.05;;;;;;;4.05;100.00;99537.44;5049357;28;20044;-63
2023/01/16 00:33:02;;;;;;;9.30;4.40;;;;;;;3.94;100.00;99519.47;5048925;28;20025;-62
2023/01/16 00:35:28;;;;;;;10.75;3.05;;;;;;;3.89;100.00;99521.38;5037692;28;20029;-60
2023/01/16 00:37:53;;;;;;;11.13;3.17;;;;;;;3.94;100.00;99509.06;5029235;28;20558;-62
2023/01/16 00:40:18;;;;;;;7.25;2.60;;;;;;;3.96;100.00;99503.81;5029364;28;20086;-62
2023/01/16 00:42:44;;;;;;;5.28;2.40;;;;;;;3.98;100.00;99494.19;5028626;28;20049;-61
2023/01/16 00:45:10;;;;;;;3.70;2.30;;;;;;;4.00;100.00;99502.84;5029032;28;20437;-63
2023/01/16 00:47:35;;;;;;;5.63;2.45;;;;;;;4.08;100.00;99494.78;5010865;28;20126;-62
2023/01/16 00:50:00;;;;;;;9.50;2.58;;;;;;;4.08;100.00;99485.22;5042269;28;20029;-62
2023/01/16 00:52:26;;;;;;;10.75;2.90;;;;;;;4.07;100.00;99490.47;5048574;28;20021;-63
2023/01/16 00:54:51;;;;;;;7.45;2.80;;;;;;;4.11;100.00;99485.13;5047798;28;20049;-62
2023/01/16 00:57:17;;;;;;;12.73;3.53;;;;;;;4.00;100.00;99480.22;5048823;28;20029;-62
2023/01/16 00:59:42;;;;;;;13.93;3.85;;;;;;;4.02;100.00;99468.00;5048790;28;20025;-62
2023/01/16 01:02:07;;;;;;;8.38;4.18;;;;;;;3.99;100.00;99465.47;5048251;28;20032;-62
2023/01/16 01:04:33;;;;;;;9.32;4.00;;;;;;;4.01;100.00;99461.06;5029630;28;20028;-60
2023/01/16 01:06:58;;;;;;;9.00;4.90;;;;;;;3.96;100.00;99444.72;5028099;28;20105;-62
2023/01/16 01:09:23;;;;;;;11.45;4.90;;;;;;;3.95;100.00;99436.94;5028510;28;20037;-62
2023/01/16 01:11:49;;;;;;;12.02;5.40;;;;;;;3.89;100.00;99430.16;5010592;28;20025;-63
2023/01/16 01:14:14;;;;;;;15.85;5.30;;;;;;;3.91;100.00;99426.59;5028701;28;20045;-62
2023/01/16 01:16:40;;;;;;;17.02;5.85;;;;;;;3.90;100.00;99424.03;5030587;28;20033;-62
2023/01/16 01:19:05;;;;;;;12.95;5.90;;;;;;;3.89;100.00;99417.13;5047986;28;20021;-62
2023/01/16 01:21:31;;;;;;;11.50;5.28;;;;;;;3.87;100.00;99419.78;5048354;28;20067;-62
2023/01/16 01:23:56;;;;;;;15.93;6.03;;;;;;;3.93;100.00;99408.31;5048367;28;20025;-63
2023/01/16 01:26:22;;;;;;;14.57;6.57;;;;;;;4.07;100.00;99399.22;5047993;28;20021;-61
2023/01/16 01:28:47;;;;;;;15.68;6.15;;;;;;;4.14;100.00;99403.34;5048697;28;20036;-62
2023/01/16 01:31:13;;;;;;;13.95;6.45;;;;;;;4.17;100.00;99405.88;5021947;28;20049;-63
2023/01/16 01:33:39;;;;;;;13.77;6.32;;;;;;;4.21;100.00;99399.66;5011003;28;20032;-62
2023/01/16 01:36:05;;;;;;;18.15;7.05;;;;;;;4.16;100.00;99404.19;5027890;28;20112;-63
2023/01/16 01:38:30;;;;;;;14.45;6.03;;;;;;;4.13;100.00;99389.47;5028544;28;20392;-61
2023/01/16 01:40:56;;;;;;;15.23;6.78;;;;;;;4.13;100.00;99373.81;5027284;28;20040;-61
2023/01/16 01:43:21;;;;;;;15.43;6.55;;;;;;;4.12;100.00;99366.06;5027671;28;20032;-60
2023/01/16 01:45:54;;;;;;;13.73;6.22;;;;;;;4.07;100.00;99363.59;5026007;28;20765;-61
2023/01/16 01:48:30;;;;;;;12.77;5.63;;;;;;;4.08;100.00;99364.44;5010293;28;20134;-62
2023/01/16 01:50:58;;;;;;;18.48;6.55;;;;;;;4.08;100.00;99354.88;5026670;28;20048;-62
2023/01/16 01:53:35;;;;;;;17.87;6.83;;;;;;;4.01;100.00;99350.75;5028187;28;20021;-63
2023/01/16 01:56:07;;;;;;;14.73;5.72;;;;;;;4.06;100.00;99345.41;5009664;28;20104;-61
2023/01/16 01:58:32;;;;;;;13.05;6.68;;;;;;;4.13;100.00;99347.75;5027943;28;20106;-62
2023/01/16 02:00:59;;;;;;;24.23;7.22;;;;;;;4.14;100.00;99340.78;5033139;28;20106;-62
2023/01/16 02:03:56;;;;;;;12.25;5.47;;;;;;;4.23;100.00;99335.28;5047789;28;20029;-62
2023/01/16 02:06:29;;;;;;;11.38;5.60;;;;;;;4.29;100.00;99331.63;5027851;28;20053;-61
2023/01/16 02:08:54;;;;;;;13.65;5.65;;;;;;;4.26;100.00;99327.38;5027735;28;20033;-62
2023/01/16 02:11:48;;;;;;;11.80;5.75;;;;;;;4.34;100.00;99323.66;5027525;28;20025;-62
2023/01/16 02:14:15;;;;;;;12.13;5.22;;;;;;;4.25;100.00;99317.81;5006089;28;20704;-64
2023/01/16 02:19:42;;;;;;;16.77;5.13;;;;;;;4.26;100.00;99311.72;5026789;28;20052;-60
2023/01/16 02:22:46;;;;;;;7.50;3.92;;;;;;;4.21;100.00;99316.22;5009741;28;20021;-60
2023/01/16 02:25:41;;;;;;;8.95;3.30;;;;;;;4.22;100.00;99312.72;5026302;28;20423;-60
2023/01/16 02:28:44;;;;;;;11.40;3.08;;;;;;;4.27;100.00;99308.22;5027079;28;20061;-62
2023/01/16 02:31:33;;;;;;;7.72;3.47;;;;;;;4.26;100.00;99301.28;5027797;28;20360;-61
2023/01/16 02:33:58;;;;;;;16.98;3.90;;;;;;;4.18;100.00;99300.66;5009169;28;20021;-61
2023/01/16 02:36:47;;;;;;;7.47;3.38;;;;;;;4.23;100.00;99296.19;5027728;28;20120;-59
2023/01/16 02:39:38;;;;;;;6.85;3.45;;;;;;;4.21;100.00;99290.16;5026990;28;20083;-62
2023/01/16 02:42:13;;;;;;;16.70;3.78;;;;;;;4.16;100.00;99274.66;5026971;28;20031;-61
2023/01/16 02:45:01;;;;;;;10.90;3.33;;;;;;;4.17;100.00;99270.28;5027926;28;20041;-62
2023/01/16 02:47:43;;;;;;;9.68;3.75;;;;;;;4.13;100.00;99250.44;5032659;28;20033;-62
2023/01/16 02:50:18;;;;;;;12.77;4.57;;;;;;;4.07;100.00;99246.28;5013273;28;20499;-63
2023/01/16 02:52:53;;;;;;;11.55;4.13;;;;;;;4.01;100.00;99234.28;5047580;28;20055;-61
2023/01/16 02:55:39;;;;;;;15.93;4.35;;;;;;;4.01;100.00;99223.88;5047173;28;20388;-61
2023/01/16 02:58:06;;;;;;;8.80;4.00;;;;;;;3.99;100.00;99220.47;5013653;28;20459;-63
2023/01/16 03:00:31;;;;;;;11.25;5.05;;;;;;;3.93;100.00;99207.63;5030621;28;20025;-63
2023/01/16 03:02:57;;;;;;;11.40;4.28;;;;;;;3.97;100.00;99201.41;5026301;28;20033;-62
2023/01/16 03:05:22;;;;;;;12.13;5.07;;;;;;;3.99;100.00;99193.56;5048781;28;20026;-62
2023/01/16 03:07:57;;;;;;;12.35;4.72;;;;;;;3.98;100.00;99189.25;5048563;28;20725;-62
2023/01/16 03:10:53;;;;;;;12.82;4.50;;;;;;;3.92;100.00;99175.50;5047615;28;20029;-62
2023/01/16 03:13:43;;;;;;;12.20;4.13;;;;;;;3.92;100.00;99185.09;5047903;28;20121;-62
2023/01/16 03:16:19;;;;;;;10.77;4.53;;;;;;;3.91;100.00;99176.41;5046668;28;20044;-60
2023/01/16 03:18:56;;;;;;;10.60;4.68;;;;;;;3.85;100.00;99175.78;5031031;28;20071;-62
2023/01/16 03:21:37;;;;;;;12.50;5.22;;;;;;;3.87;100.00;99168.75;5041545;28;20044;-62
2023/01/16 03:24:11;;;;;;;14.27;5.38;;;;;;;3.86;100.00;99161.84;5047653;28;20020;-62
2023/01/16 03:26:42;;;;;;;12.75;4.80;;;;;;;3.90;100.00;99155.63;5046230;28;20525;-61
2023/01/16 03:29:16;;;;;;;11.60;4.32;;;;;;;3.90;100.00;99150.41;5029522;28;20051;-62
2023/01/16 03:31:54;;;;;;;10.43;5.03;;;;;;;3.86;100.00;99146.22;5047368;28;20029;-64
2023/01/16 03:34:21;;;;;;;11.10;5.22;;;;;;;3.96;100.00;99131.97;5048243;28;20033;-63
2023/01/16 03:36:52;;;;;;;12.52;5.05;;;;;;;3.93;100.00;99139.88;5049037;28;20368;-62
2023/01/16 03:39:24;;;;;;;15.77;4.90;;;;;;;3.97;100.00;99125.84;5051768;28;20017;-60
2023/01/16 03:41:50;;;;;;;13.23;3.60;;;;;;;3.94;100.00;99125.09;5032576;28;20033;-61
2023/01/16 03:44:29;;;;;;;10.13;4.78;;;;;;;3.87;100.00;99112.28;5034178;28;20040;-64
2023/01/16 03:46:55;;;;;;;12.20;3.58;;;;;;;3.91;100.00;99103.44;5032674;28;20029;-61
2023/01/16 03:49:25;;;;;;;6.22;2.80;;;;;;;3.91;100.00;99089.56;5049428;28;20033;-61
2023/01/16 03:51:53;;;;;;;6.47;2.38;;;;;;;3.93;100.00;99087.75;5012966;28;20054;-62
2023/01/16 03:54:36;;;;;;;8.10;3.30;;;;;;;3.92;100.00;99073.03;5013842;28;20017;-61
2023/01/16 03:57:19;;;;;;;8.05;2.60;;;;;;;3.94;100.00;99060.78;5029876;28;20365;-61
2023/01/16 03:59:45;;;;;;;5.60;2.03;;;;;;;3.89;100.00;99050.53;5013158;28;20052;-63
2023/01/16 04:02:19;;;;;;;4.18;1.90;;;;;;;3.87;100.00;99039.31;5015397;28;20028;-61
2023/01/16 04:04:51;;;;;;;7.60;1.95;;;;;;;3.97;100.00;99034.63;5020191;28;20044;-62
2023/01/16 04:07:34;;;;;;;8.25;1.73;;;;;;;4.02;100.00;99027.50;5013494;28;20034;-62
2023/01/16 04:10:03;;;;;;;5.90;1.98;;;;;;;4.04;100.00;99019.63;5012472;28;20029;-65
2023/01/16 04:12:35;;;;;;;11.35;2.05;;;;;;;4.16;100.00;99007.91;5014230;28;20030;-66
2023/01/16 04:15:04;;;;;;;6.30;1.90;;;;;;;4.19;100.00;99002.56;5013617;28;20399;-63
2023/01/16 04:17:30;;;;;;;7.78;1.65;;;;;;;4.28;100.00;98996.16;5013263;28;20102;-62
2023/01/16 04:19:55;;;;;;;5.03;1.30;;;;;;;4.22;100.00;98984.22;5031436;28;20092;-62
2023/01/16 04:22:23;;;;;;;9.32;1.98;;;;;;;4.11;100.00;98968.97;5013886;28;20029;-61
2023/01/16 04:24:49;;;;;;;4.82;1.52;;;;;;;4.19;100.00;98976.50;5030443;28;20064;-60
2023/01/16 04:27:16;;;;;;;5.47;1.58;;;;;;;4.10;100.00;98956.84;5011349;28;20036;-62
2023/01/16 04:29:42;;;;;;;3.45;1.50;;;;;;;4.07;100.00;98956.09;5029592;28;20542;-60
2023/01/16 04:32:07;;;;;;;8.73;1.42;;;;;;;4.10;100.00;98942.97;5036218;28;20032;-64
2023/01/16 04:34:33;;;;;;;4.50;1.55;;;;;;;4.16;100.00;98934.91;5049941;28;20037;-61
2023/01/16 04:36:58;;;;;;;5.95;1.63;;;;;;;4.11;100.00;98921.19;5049119;28;20025;-62
2023/01/16 04:39:24;;;;;;;8.68;1.98;;;;;;;4.13;100.00;98919.38;5049893;28;20079;-61
2023/01/16 04:41:50;;;;;;;9.88;1.80;;;;;;;4.17;100.00;98920.97;5048903;28;20731;-62
2023/01/16 04:44:16;;;;;;;1.88;1.30;;;;;;;4.13;100.00;98904.56;5049318;28;20464;-60
2023/01/16 04:46:42;;;;;;;4.50;2.05;;;;;;;4.12;100.00;98902.06;5035203;28;20028;-62
2023/01/16 04:49:07;;;;;;;7.18;1.92;;;;;;;4.09;100.00;98892.56;5029315;28;20470;-61
2023/01/16 04:51:34;;;;;;;4.95;1.65;;;;;;;3.94;100.00;98883.56;5030348;28;20033;-62
2023/01/16 04:53:59;;;;;;;11.30;1.83;;;;;;;4.05;100.00;98872.75;5031147;28;20061;-62
2023/01/16 04:56:24;;;;;;;4.70;1.52;;;;;;;4.08;100.00;98858.75;5031098;28;20025;-62
2023/01/16 04:58:50;;;;;;;4.72;1.70;;;;;;;3.99;100.00;98854.75;5032801;28;20025;-61
2023/01/16 05:01:17;;;;;;;4.32;1.40;;;;;;;4.11;100.00;98840.38;5031579;28;20028;-61
2023/01/16 05:03:42;;;;;;;4.18;1.67;;;;;;;4.10;100.00;98834.34;5031889;28;20025;-60
2023/01/16 05:06:08;;;;;;;6.93;2.65;;;;;;;4.10;100.00;98831.72;5032700;28;20032;-60
2023/01/16 05:08:33;;;;;;;9.45;1.83;;;;;;;4.23;100.00;98824.25;5016093;28;20029;-58
2023/01/16 05:11:00;;;;;;;4.18;1.50;;;;;;;4.20;100.00;98810.50;5050494;28;20056;-62
2023/01/16 05:13:27;;;;;;;7.32;1.55;;;;;;;4.22;100.00;98803.47;5048526;28;21648;-61
2023/01/16 05:15:52;;;;;;;9.82;2.47;;;;;;;4.21;100.00;98792.19;5031642;28;20140;-62
2023/01/16 05:18:18;;;;;;;6.05;1.80;;;;;;;4.27;100.00;98781.50;5031832;28;20100;-61
2023/01/16 05:20:43;;;;;;;5.60;1.50;;;;;;;4.20;100.00;98769.63;5039139;28;20034;-63
2023/01/16 05:23:11;;;;;;;8.05;1.65;;;;;;;4.12;100.00;98761.28;5015005;28;20029;-63
2023/01/16 05:25:37;;;;;;;4.40;1.77;;;;;;;4.22;100.00;98746.97;5036643;28;20060;-61
2023/01/16 05:28:03;;;;;;;4.15;1.83;;;;;;;4.16;100.00;98740.22;5030868;28;20076;-64
2023/01/16 05:30:28;;;;;;;8.77;1.92;;;;;;;4.07;100.00;98735.41;5029181;28;20033;-61
2023/01/16 05:32:54;;;;;;;7.40;2.25;;;;;;;4.06;100.00;98738.09;5022260;28;20362;-62
2023/01/16 05:35:19;;;;;;;7.78;2.30;;;;;;;4.13;100.00;98723.88;5042226;28;20021;-61
2023/01/16 05:37:45;;;;;;;7.63;1.90;;;;;;;4.12;100.00;98715.19;5049085;28;20036;-59
2023/01/16 05:40:11;;;;;;;6.22;1.92;;;;;;;4.14;100.00;98704.72;5046389;28;20021;-60
2023/01/16 05:42:36;;;;;;;5.10;1.52;;;;;;;4.30;100.00;98703.16;5037125;28;20035;-62
2023/01/16 05:45:03;;;;;;;5.30;2.28;;;;;;;4.27;100.00;98695.47;5046398;28;20017;-62
2023/01/16 05:47:28;;;;;;;4.72;1.80;;;;;;;4.21;100.00;98684.47;5038274;28;20406;-62
2023/01/16 05:49:53;;;;;;;5.70;2.00;;;;;;;4.46;100.00;98680.78;5027757;28;20033;-61
2023/01/16 05:52:19;;;;;;;5.75;1.70;;;;;;;4.46;100.00;98683.41;5027068;28;20056;-61
2023/01/16 05:54:44;;;;;;;5.03;1.50;;;;;;;4.41;100.00;98667.94;5010491;28;20032;-61
2023/01/16 05:57:10;;;;;;;6.43;1.70;;;;;;;4.49;100.00;98665.84;5028543;28;20093;-61
2023/01/16 05:59:35;;;;;;;3.65;2.22;;;;;;;4.63;100.00;98656.56;5024890;28;20507;-62
2023/01/16 06:02:00;;;;;;;9.15;1.98;;;;;;;4.67;100.00;98652.94;5040864;28;20047;-62
2023/01/16 06:04:26;;;;;;;8.98;2.05;;;;;;;4.59;100.00;98645.44;5045578;28;20021;-60
2023/01/16 06:06:51;;;;;;;4.93;1.65;;;;;;;4.59;100.00;98644.56;5046747;28;20078;-60
2023/01/16 06:09:17;;;;;;;5.53;1.75;;;;;;;4.62;100.00;98634.88;5047817;28;20029;-62
2023/01/16 06:11:42;;;;;;;6.78;1.90;;;;;;;4.58;100.00;98632.47;5046515;28;20025;-62
2023/01/16 06:14:07;;;;;;;7.40;2.40;;;;;;;4.72;100.00;98626.63;5046221;28;20110;-62
2023/01/16 06:16:34;;;;;;;8.32;1.80;;;;;;;4.75;100.00;98629.94;5048020;28;20131;-61
2023/01/16 06:19:00;;;;;;;8.10;2.30;;;;;;;4.76;100.00;98615.97;5047726;28;20071;-61
2023/01/16 06:21:25;;;;;;;8.35;1.73;;;;;;;4.71;100.00;98612.72;5029036;28;20061;-61
2023/01/16 06:23:51;;;;;;;8.45;1.88;;;;;;;4.72;100.00;98609.19;5027502;28;20037;-60
2023/01/16 06:26:16;;;;;;;7.15;2.10;;;;;;;4.79;100.00;98591.50;5027356;28;20475;-63
2023/01/16 06:28:41;;;;;;;7.53;1.95;;;;;;;4.62;100.00;98585.31;5027476;28;20487;-61
2023/01/16 06:31:07;;;;;;;8.65;2.30;;;;;;;4.61;100.00;98580.16;5027265;28;20075;-60
2023/01/16 06:33:33;;;;;;;4.93;2.10;;;;;;;4.66;100.00;98565.13;5026454;28;20067;-61
2023/01/16 06:35:58;;;;;;;17.42;2.25;;;;;;;4.72;100.00;98564.84;5026898;28;20052;-61
2023/01/16 06:38:24;;;;;;;8.13;2.55;;;;;;;4.67;100.00;98552.00;5026770;28;20026;-60
2023/01/16 06:40:49;;;;;;;9.02;1.90;;;;;;;4.67;100.00;98552.00;5026421;28;20029;-62
2023/01/16 06:43:17;;;;;;;7.93;2.08;;;;;;;4.58;100.00;98547.25;5027140;28;20048;-62
2023/01/16 06:45:44;;;;;;;16.58;2.88;;;;;;;4.56;100.00;98530.81;5038426;28;20036;-62
2023/01/16 06:48:10;;;;;;;7.60;1.80;;;;;;;4.62;100.00;98529.66;5040894;28;20109;-61
2023/01/16 06:50:35;;;;;;;7.53;2.15;;;;;;;4.75;100.00;98522.97;5046302;28;20102;-63
2023/01/16 06:53:01;;;;;;;9.60;1.63;;;;;;;4.79;100.00;98511.44;5040086;28;20013;-60
2023/01/16 06:55:27;;;;;;;9.43;2.35;;;;;;;4.65;100.00;98514.72;5036729;28;20108;-58
2023/01/16 06:57:52;;;;;;;5.32;1.70;;;;;;;4.66;100.00;98505.97;5037719;28;20021;-62
2023/01/16 07:00:18;;;;;;;5.85;1.85;;;;;;;4.70;100.00;98501.47;5035350;28;20021;-61
2023/01/16 07:02:43;;;;;;;10.68;2.13;;;;;;;4.63;100.00;98487.84;5038201;28;20516;-60
2023/01/16 07:05:09;;;;;;;4.20;1.58;;;;;;;4.64;100.00;98480.91;5039299;28;20032;-60
2023/01/16 07:07:35;;;;;;;7.72;2.25;;;;;;;4.70;100.00;98464.94;5011604;28;20056;-61
2023/01/16 07:10:01;;;;;;;6.47;1.70;;;;;;;4.71;100.00;98458.81;5047097;28;20551;-58
2023/01/16 07:12:26;;;;;;;5.97;1.67;;;;;;;4.65;100.00;98446.06;5049894;28;20028;-60
2023/01/16 07:23:36;;;;;;;10.20;1.90;;;;;;;4.90;100.00;98403.09;5030173;28;20134;-60
2023/01/16 07:26:04;;;;;;;6.93;1.75;;;;;;;4.87;100.00;98390.19;4974595;28;20057;-59
2023/01/16 07:28:30;;;;;;;11.43;1.67;;;;;;;4.67;100.00;98386.84;5045182;28;20025;-59
2023/01/16 07:30:57;;;;;;;9.55;2.08;;;;;;;4.72;100.00;98382.22;5022927;28;20079;-62
2023/01/16 07:33:22;;;;;;;8.30;1.80;;;;;;;4.68;100.00;98371.09;5041399;28;20223;-61
2023/01/16 07:35:47;;;;;;;5.10;1.92;;;;;;;4.65;100.00;98349.53;5041098;28;20485;-61
2023/01/16 07:38:13;;;;;;;6.85;1.73;;;;;;;4.73;100.00;98349.97;5030574;28;20527;-61
2023/01/16 07:40:38;;;;;;;5.63;1.83;;;;;;;4.78;100.00;98341.94;5028605;28;20052;-60
2023/01/16 07:43:04;;;;;;;10.95;2.15;;;;;;;4.76;100.00;98333.34;5029795;28;20025;-61
2023/01/16 07:45:29;;;;;;;6.43;1.85;;;;;;;4.67;100.00;98339.88;5029135;28;20480;-61
2023/01/16 07:47:55;;;;;;;6.63;1.95;;;;;;;4.65;100.00;98321.69;5029917;28;20037;-64
2023/01/16 07:50:20;;;;;;;7.50;1.65;;;;;;;4.75;100.00;98316.84;5029885;28;20036;-58
2023/01/16 07:52:46;;;;;;;5.60;1.83;;;;;;;4.80;100.00;98317.47;5027467;28;20029;-60
2023/01/16 07:55:12;;;;;;;5.03;1.75;;;;;;;4.80;100.00;98314.00;5028122;28;20025;-60
2023/01/16 07:57:38;;;;;;;5.93;2.17;;;;;;;4.77;100.00;98294.16;5029027;28;20040;-60
2023/01/16 08:00:09;;;;;;;8.73;1.77;;;;;;;4.58;100.00;98296.00;5028904;28;20044;-59
2023/01/16 08:02:34;;;;;;;6.30;1.70;;;;;;;4.65;100.00;98286.94;5011968;28;20109;-60
2023/01/16 08:04:59;;;;;;;5.70;1.75;;;;;;;4.58;100.00;98282.94;5029594;28;21463;-60
2023/01/16 08:07:25;;;;;;;5.35;1.67;;;;;;;4.68;100.00;98273.72;5043340;28;20017;-59
2023/01/16 08:09:50;;;;;;;8.38;1.90;;;;;;;4.71;100.00;98262.28;5048186;28;20025;-61
2023/01/16 08:12:15;;;;;;;6.95;1.75;;;;;;;4.75;100.00;98256.00;5049705;28;20043;-61
2023/01/16 08:14:41;;;;;;;5.65;1.38;;;;;;;4.82;100.00;98246.94;5049747;28;20037;-60
2023/01/16 08:17:06;;;;;;;2.92;1.20;;;;;;;4.76;100.00;98248.09;5049163;28;20116;-58
2023/01/16 08:19:32;;;;;;;7.25;1.63;;;;;;;4.64;100.00;98235.69;5048635;28;20643;-61
2023/01/16 08:21:57;;;;;;;5.18;1.45;;;;;;;4.64;100.00;98241.72;5035167;28;20040;-61
2023/01/16 08:24:25;;;;;;;11.35;2.00;;;;;;;4.75;100.00;98228.16;5010983;28;20022;-61
2023/01/16 08:26:50;;;;;;;6.28;1.23;;;;;;;4.52;100.00;98230.16;5029404;28;20117;-60
2023/01/16 08:29:16;;;;;;;6.43;1.35;;;;;;;4.67;100.00;98222.50;5030636;28;20116;-60
2023/01/16 08:31:41;;;;;;;6.35;1.60;;;;;;;4.62;100.00;98214.06;5029572;28;20022;-60
2023/01/16 08:34:06;;;;;;;7.28;1.73;;;;;;;4.82;100.00;98217.41;5048114;28;20470;-60
2023/01/16 08:36:32;;;;;;;6.68;1.25;;;;;;;4.80;100.00;98207.88;5049457;28;20029;-58
2023/01/16 08:38:57;;;;;;;8.43;1.60;;;;;;;4.76;100.00;98208.94;5047086;28;20020;-63
2023/01/16 08:52:29;;;;;;;5.28;1.67;;;;;;;4.67;100.00;98176.38;5019068;28;20047;-60
2023/01/16 08:54:56;;;;;;;4.50;1.70;;;;;;;4.66;100.00;98168.63;5048510;28;20104;-60
2023/01/16 08:57:21;;;;;;;7.57;1.70;;;;;;;4.72;100.00;98170.91;5048417;28;20283;-60
2023/01/16 08:59:46;;;;;;;3.47;1.60;;;;;;;4.77;100.00;98160.22;5048884;28;20033;-61
2023/01/16 09:02:14;;;;;;;6.05;1.85;;;;;;;4.72;100.00;98165.69;5030736;28;20511;-60
2023/01/16 09:04:39;;;;;;;5.25;1.88;;;;;;;4.65;100.00;98156.50;5010911;28;20021;-62
2023/01/16 09:07:05;;;;;;;3.95;1.70;;;;;;;4.78;100.00;98147.09;5028143;28;20029;-60
2023/01/16 09:09:30;;;;;;;5.15;1.70;;;;;;;4.87;100.00;98142.31;5028570;28;20029;-60
2023/01/16 09:14:40;;;;;;;6.57;2.63;;;;;;;4.71;100.00;98145.75;5040148;28;20055;-60
2023/01/16 09:17:06;;;;;;;4.05;1.63;;;;;;;4.78;100.00;98139.28;5048475;28;20025;-61
2023/01/16 09:19:32;;;;;;;4.68;1.65;;;;;;;4.90;100.00;98134.31;5047579;28;20036;-57
2023/01/16 09:21:57;;;;;;;2.75;1.48;;;;;;;4.97;100.00;98129.63;5047091;28;20471;-61
2023/01/16 09:24:22;;;;;;;4.30;1.73;;;;;;;4.90;100.00;98121.28;5047499;28;20072;-61
2023/01/16 09:26:48;;;;;;;4.75;1.63;;;;;;;5.03;100.00;98122.28;5042091;28;20040;-60
2023/01/16 09:29:13;;;;;;;5.10;1.60;;;;;;;5.11;100.00;98118.41;5040146;28;20040;-60
2023/01/16 09:31:38;;;;;;;6.57;2.00;;;;;;;4.97;100.00;98122.63;5036730;28;20048;-59
2023/01/16 09:34:04;;;;;;;3.30;1.60;;;;;;;5.00;100.00;98116.41;5034224;28;20065;-61
2023/01/16 09:36:29;;;;;;;6.93;1.90;;;;;;;5.10;100.00;98111.50;5028828;28;20029;-61
2023/01/16 09:38:54;;;;;;;3.05;1.63;;;;;;;5.10;100.00;98111.50;5035440;28;20059;-58
2023/01/16 09:44:07;;;;;;;3.53;1.80;;;;;;;5.03;100.00;98104.00;5030208;28;20032;-60
2023/01/16 09:46:35;;;;;;;;;;;;;;;5.16;100.00;98100.75;5028688;28;20128;-62
2023/01/16 09:49:13;;;;;;;4.18;1.60;;;;;;;5.35;100.00;98091.84;5015303;28;19917;-61
2023/01/16 09:58:34;;;;;;;3.25;1.40;;;;;;;5.26;100.00;98083.63;5012742;28;20661;-58
2023/01/16 09:59:57;;;;;;;3.80;1.50;;;;;;;5.29;100.00;98074.78;5015328;28;20039;-61
2023/01/16 10:02:32;;;;;;;2.58;1.23;;;;;;;5.40;100.00;98080.25;5009635;28;20025;-61
2023/01/16 10:05:01;;;;;;;2.45;1.25;;;;;;;5.31;100.00;98072.94;5027421;28;20368;-60
2023/01/16 10:07:49;;;;;;;4.38;1.77;;;;;;;5.35;100.00;98070.97;5011463;28;20029;-59
2023/01/16 10:10:34;;;;;;;1.92;1.25;;;;;;;5.39;100.00;98062.88;5009693;28;20028;-61
2023/01/16 10:13:36;;;;;;;3.58;1.33;;;;;;;5.41;100.00;98057.56;5027636;28;20026;-59
2023/01/16 10:16:39;;;;;;;3.92;1.40;;;;;;;5.37;100.00;98056.91;5028380;28;20426;-59
2023/01/16 10:19:10;;;;;;;3.08;1.63;;;;;;;5.46;100.00;98054.69;5029020;28;20026;-59
2023/01/16 10:21:47;;;;;;;3.72;1.50;;;;;;;5.46;100.00;98050.31;5011315;28;20481;-60
2023/01/16 10:24:30;;;;;;;5.80;1.60;;;;;;;5.24;100.00;98041.09;5027304;28;20067;-61
2023/01/16 10:27:00;;;;;;;3.45;1.52;;;;;;;5.26;100.00;98043.63;5028875;28;20219;-60
2023/01/16 10:29:32;;;;;;;2.95;1.48;;;;;;;5.45;100.00;98043.41;5011071;28;20120;-60
2023/01/16 10:32:02;;;;;;;3.15;1.42;;;;;;;5.44;100.00;98031.28;4997378;28;20487;-60
2023/01/16 10:34:33;;;;;;;2.92;1.30;;;;;;;5.39;100.00;98022.88;5030388;28;20080;-58
2023/01/16 10:36:59;;;;;;;3.05;1.42;;;;;;;5.34;100.00;98024.91;5012051;28;20037;-59
2023/01/16 10:39:36;;;;;;;6.32;1.80;;;;;;;5.41;100.00;98018.38;5028914;28;20017;-61
2023/01/16 10:50:45;;;;;;;3.47;1.52;;;;;;;5.42;100.00;98002.63;5016190;28;20048;-61
2023/01/16 10:53:11;;;;;;;3.53;1.70;;;;;;;5.43;100.00;97995.66;5018810;28;20490;-61
2023/01/16 10:55:39;;;;;;;2.40;1.90;;;;;;;5.68;100.00;97996.81;5030758;28;20030;-61
2023/01/16 10:58:28;;;;;;;4.23;2.00;;;;;;;5.63;100.00;97998.88;5032330;28;20483;-60
2023/01/16 11:01:08;;;;;;;3.40;1.43;;;;;;;5.67;100.00;97987.28;5032459;28;20329;-61
2023/01/16 11:03:36;;;;;;;3.97;1.38;;;;;;;5.74;100.00;97991.22;5013303;28;20025;-60
2023/01/16 11:06:22;;;;;;;1.88;1.20;;;;;;;5.88;100.00;97984.31;5011666;28;20098;-58
2023/01/16 11:08:54;;;;;;;4.15;1.38;;;;;;;6.01;100.00;97977.41;5031035;28;20033;-59
2023/01/16 11:19:42;;;;;;;1.50;1.40;;;;;;;6.07;100.00;97961.38;5039962;28;20092;-61
2023/01/16 11:22:25;;;;;;;2.15;1.25;;;;;;;6.11;100.00;97955.97;5012671;28;20040;-61
2023/01/16 11:24:56;;;;;;;1.55;1.30;;;;;;;6.24;100.00;97949.06;5030756;28;20029;-60
2023/01/16 11:27:23;;;;;;;1.25;1.00;;;;;;;6.29;100.00;97939.13;5050900;28;20059;-59
2023/01/16 11:29:52;;;;;;;1.13;1.02;;;;;;;6.37;100.00;97936.03;5032987;28;20052;-61
2023/01/16 11:32:24;;;;;;;;;;;;;;;6.40;100.00;97935.84;5050935;28;20028;-60
2023/01/16 11:34:50;;;;;;;2.13;1.10;;;;;;;6.49;100.00;97941.41;5025331;28;20000;-61
2023/01/16 11:37:16;;;;;;;1.17;1.02;;;;;;;6.46;100.00;97929.38;5021636;28;20113;-62
2023/01/16 11:39:47;;;;;;;2.08;1.00;;;;;;;6.62;100.00;97925.78;5020547;28;20071;-61
2023/01/16 11:47:51;;;;;;;2.65;1.02;;;;;;;6.78;100.00;97913.38;5037599;28;20078;-58
2023/01/16 11:50:25;;;;;;;2.50;1.10;;;;;;;7.00;100.00;97914.59;5018540;28;20032;-60
2023/01/16 11:52:50;;;;;;;4.18;0.85;;;;;;;6.91;100.00;97905.56;5033413;28;20476;-60
2023/01/16 11:55:15;;;;;;;0.60;0.57;;;;;;;7.04;100.00;97907.34;5042058;28;20021;-61
2023/01/16 11:58:00;;;;;;;0.93;0.50;;;;;;;7.23;100.00;97906.13;5035814;28;20114;-61
2023/01/16 12:00:45;;;;;;;0.63;0.60;;;;;;;7.40;100.00;97899.72;5019790;28;20044;-60
2023/01/16 12:03:29;;;;;;;1.70;0.60;;;;;;;7.56;100.00;97891.69;5015890;28;20032;-59
2023/01/16 12:06:29;;;;;;;3.17;0.85;;;;;;;7.55;100.00;97889.97;5031149;28;20026;-61
2023/01/16 12:08:58;;;;;;;0.80;0.55;;;;;;;7.53;100.00;97891.88;5032873;28;20021;-60
2023/01/16 12:11:29;;;;;;;;;;;;;;;7.58;100.00;97879.28;5034939;28;20072;-59
2023/01/16 12:14:19;;;;;;;0.40;0.32;;;;;;;7.61;100.00;97879.09;5013893;28;19975;-65
2023/01/16 12:17:02;;;;;;;;;;;;;;;7.86;100.00;97882.63;5033668;28;20119;-58
2023/01/16 12:19:57;;;;;;;0.70;0.70;;;;;;;8.06;100.00;97872.50;5049283;28;19912;-60
2023/01/16 12:22:38;;;;;;;1.50;0.63;;;;;;;8.20;100.00;97866.28;5049371;28;20112;-60
2023/01/16 12:25:25;;;;;;;0.70;0.70;;;;;;;8.06;100.00;97857.59;5049050;28;20059;-57
2023/01/16 12:27:56;;;;;;;0.80;0.80;;;;;;;8.10;100.00;97853.00;5049275;28;20083;-62
2023/01/16 12:30:30;;;;;;;1.90;0.65;;;;;;;8.06;100.00;97859.38;5048570;28;20517;-64
2023/01/16 12:33:09;;;;;;;0.88;0.88;;;;;;;8.16;100.00;97855.16;5049355;28;20055;-63
2023/01/16 12:35:56;;;;;;;1.38;0.57;;;;;;;8.16;100.00;97849.09;5031960;28;20029;-64
2023/01/16 12:38:36;;;;;;;2.60;0.88;;;;;;;8.22;100.00;97852.09;5031292;28;20032;-63
2023/01/16 12:44:09;;;;;;;2.13;0.75;;;;;;;7.85;100.00;97839.00;5014784;28;20126;-64